DLH105 VIDP-EDDF
Flight info
| Callsign | DLH105 |
|---|---|
| Flight time | N/A |
| Altitude | 34000 |
| Route | DUDUM6C DUDUM Q2 NIKOT R462 UUD W58 AAE W63 KS W103 KARKU L301 RASKI N881 KIPOL L444 TOLDA M628 TULBU G652 TOKRA DCT ALROK DCT BOSOB DCT ITRUX/N0493F360 Y511 PMA Z712 WEJ L677 CVO L617 MENKU/N0488F380 L617 TANSA DCT PEXAN DCT BITLA DCT MAVAR DCT OSLUD/N0469F400 DCT BOSNA DCT TIVNU DCT PODET DCT NEMAL DCT SIMBA DCT AKINI T161 DEBHI DEBHI1C |
| Aircraft | A333/H-SDE3GHIJ2J3J5M1RVWXY/LB2D1 |
Departure
| Time | 2026-04-28 10:52 |
|---|---|
| Airport | Indira Gandhi International Airport (VIDP) |
Arrival
| Time | N/A |
|---|---|
| Airport | Frankfurt Main Airport (EDDF) |
| Time | Latitude | Longitude | Altitude | Speed | Heading |
|---|---|---|---|---|---|
| 2026-04-28 10:22 | 28.55947 | 77.08209 | 786 ft | 0 kts | 59° |
| 2026-04-28 10:36 | 28.55946 | 77.08208 | 786 ft | 1 kts | 59° |
| 2026-04-28 10:37 | 28.55939 | 77.08194 | 785 ft | 2 kts | 59° |
| 2026-04-28 10:37 | 28.55932 | 77.08179 | 783 ft | 2 kts | 59° |
| 2026-04-28 10:37 | 28.55924 | 77.08165 | 782 ft | 2 kts | 59° |
| 2026-04-28 10:37 | 28.55916 | 77.08151 | 781 ft | 2 kts | 59° |
| 2026-04-28 10:38 | 28.55907 | 77.08137 | 783 ft | 2 kts | 27° |
| 2026-04-28 10:38 | 28.55893 | 77.08132 | 784 ft | 2 kts | 355° |
| 2026-04-28 10:38 | 28.55879 | 77.08137 | 785 ft | 2 kts | 324° |
| 2026-04-28 10:38 | 28.55867 | 77.08147 | 786 ft | 2 kts | 324° |
| 2026-04-28 10:39 | 28.55858 | 77.08154 | 786 ft | 0 kts | 327° |
| 2026-04-28 10:39 | 28.55857 | 77.08155 | 786 ft | 0 kts | 327° |
| 2026-04-28 10:42 | 28.55860 | 77.08153 | 786 ft | 1 kts | 327° |
| 2026-04-28 10:42 | 28.55886 | 77.08134 | 786 ft | 6 kts | 328° |
| 2026-04-28 10:43 | 28.55938 | 77.08097 | 786 ft | 11 kts | 328° |
| 2026-04-28 10:43 | 28.56009 | 77.08033 | 786 ft | 14 kts | 294° |
| 2026-04-28 10:43 | 28.55951 | 77.07967 | 786 ft | 14 kts | 193° |
| 2026-04-28 10:43 | 28.55842 | 77.07934 | 786 ft | 17 kts | 195° |
| 2026-04-28 10:44 | 28.55714 | 77.07895 | 786 ft | 20 kts | 194° |
| 2026-04-28 10:44 | 28.55570 | 77.07853 | 786 ft | 22 kts | 194° |
| 2026-04-28 10:44 | 28.55410 | 77.07807 | 786 ft | 24 kts | 196° |
| 2026-04-28 10:44 | 28.55235 | 77.07752 | 786 ft | 26 kts | 195° |
| 2026-04-28 10:45 | 28.55145 | 77.07675 | 786 ft | 15 kts | 270° |
| 2026-04-28 10:45 | 28.55173 | 77.07562 | 786 ft | 15 kts | 285° |
| 2026-04-28 10:45 | 28.55204 | 77.07435 | 786 ft | 18 kts | 287° |
| 2026-04-28 10:45 | 28.55238 | 77.07290 | 786 ft | 19 kts | 285° |
| 2026-04-28 10:46 | 28.55272 | 77.07128 | 786 ft | 22 kts | 284° |
| 2026-04-28 10:46 | 28.55308 | 77.06956 | 786 ft | 11 kts | 268° |
| 2026-04-28 10:46 | 28.55262 | 77.06895 | 786 ft | 10 kts | 187° |
| 2026-04-28 10:46 | 28.55193 | 77.06881 | 786 ft | 9 kts | 193° |
| 2026-04-28 10:47 | 28.55138 | 77.06866 | 786 ft | 0 kts | 194° |
| 2026-04-28 10:48 | 28.55137 | 77.06866 | 786 ft | 0 kts | 194° |
| 2026-04-28 10:49 | 28.55129 | 77.06863 | 786 ft | 2 kts | 193° |
| 2026-04-28 10:49 | 28.55106 | 77.06857 | 786 ft | 4 kts | 193° |
| 2026-04-28 10:49 | 28.55070 | 77.06848 | 786 ft | 6 kts | 193° |
| 2026-04-28 10:49 | 28.55022 | 77.06838 | 786 ft | 7 kts | 175° |
| 2026-04-28 10:50 | 28.55000 | 77.06886 | 786 ft | 4 kts | 101° |
| 2026-04-28 10:50 | 28.55000 | 77.06888 | 786 ft | 2 kts | 101° |
| 2026-04-28 10:51 | 28.54975 | 77.07018 | 786 ft | 40 kts | 104° |
| 2026-04-28 10:51 | 28.54849 | 77.07593 | 786 ft | 107 kts | 104° |
| 2026-04-28 10:51 | 28.54618 | 77.08656 | 786 ft | 166 kts | 102° |
| 2026-04-28 10:51 | 28.54299 | 77.10105 | 876 ft | 205 kts | 105° |
| 2026-04-28 10:52 | 28.53939 | 77.11649 | 1672 ft | 199 kts | 106° |
| 2026-04-28 10:52 | 28.53486 | 77.13111 | 2430 ft | 200 kts | 112° |
| 2026-04-28 10:52 | 28.52879 | 77.14527 | 3149 ft | 202 kts | 119° |
| 2026-04-28 10:52 | 28.51901 | 77.15608 | 3860 ft | 196 kts | 162° |
| 2026-04-28 10:53 | 28.50524 | 77.15655 | 4150 ft | 213 kts | 203° |
| 2026-04-28 10:53 | 28.48982 | 77.15185 | 4243 ft | 250 kts | 189° |
| 2026-04-28 10:53 | 28.47161 | 77.14762 | 4423 ft | 287 kts | 199° |
| 2026-04-28 10:53 | 28.45185 | 77.13884 | 4767 ft | 318 kts | 208° |
| 2026-04-28 10:54 | 28.43319 | 77.12539 | 5714 ft | 316 kts | 221° |
| 2026-04-28 10:54 | 28.41437 | 77.11371 | 6819 ft | 312 kts | 198° |
| 2026-04-28 10:54 | 28.39382 | 77.10754 | 7825 ft | 309 kts | 199° |
| 2026-04-28 10:54 | 28.37343 | 77.10017 | 8823 ft | 306 kts | 202° |
| 2026-04-28 10:55 | 28.35398 | 77.09180 | 9821 ft | 303 kts | 205° |
| 2026-04-28 10:55 | 28.33557 | 77.08084 | 10702 ft | 300 kts | 223° |
| 2026-04-28 10:55 | 28.32011 | 77.06475 | 11544 ft | 303 kts | 226° |
| 2026-04-28 10:55 | 28.30532 | 77.04778 | 12413 ft | 306 kts | 229° |
| 2026-04-28 10:56 | 28.29114 | 77.02984 | 13329 ft | 309 kts | 231° |
| 2026-04-28 10:56 | 28.27630 | 77.01245 | 14278 ft | 310 kts | 224° |
| 2026-04-28 10:56 | 28.25957 | 76.99743 | 15279 ft | 311 kts | 217° |
| 2026-04-28 10:56 | 28.24079 | 76.98561 | 16289 ft | 312 kts | 207° |
| 2026-04-28 10:57 | 28.22026 | 76.97766 | 17224 ft | 314 kts | 198° |
| 2026-04-28 10:57 | 28.19895 | 76.97392 | 18118 ft | 315 kts | 188° |
| 2026-04-28 10:57 | 28.17689 | 76.97327 | 18700 ft | 321 kts | 186° |
| 2026-04-28 10:57 | 28.15400 | 76.97234 | 18931 ft | 336 kts | 186° |
| 2026-04-28 10:58 | 28.12993 | 76.97125 | 19159 ft | 351 kts | 186° |
| 2026-04-28 10:58 | 28.10503 | 76.97014 | 19301 ft | 369 kts | 186° |
| 2026-04-28 10:58 | 28.07853 | 76.96896 | 19466 ft | 386 kts | 186° |
| 2026-04-28 10:58 | 28.05118 | 76.96725 | 19624 ft | 401 kts | 189° |
| 2026-04-28 10:59 | 28.02293 | 76.96379 | 19790 ft | 415 kts | 193° |
| 2026-04-28 10:59 | 27.99572 | 76.95252 | 19914 ft | 422 kts | 214° |
| 2026-04-28 10:59 | 27.97402 | 76.93004 | 20073 ft | 429 kts | 236° |
| 2026-04-28 10:59 | 27.95894 | 76.90080 | 20306 ft | 438 kts | 243° |
| 2026-04-28 11:00 | 27.94459 | 76.87073 | 20336 ft | 428 kts | 243° |
| 2026-04-28 11:00 | 27.93062 | 76.84164 | 20436 ft | 415 kts | 243° |
| 2026-04-28 11:00 | 27.91699 | 76.81328 | 20592 ft | 417 kts | 243° |
| 2026-04-28 11:00 | 27.90327 | 76.78396 | 20734 ft | 420 kts | 245° |
| 2026-04-28 11:01 | 27.89010 | 76.75443 | 20871 ft | 422 kts | 245° |
| 2026-04-28 11:01 | 27.87692 | 76.72478 | 21195 ft | 420 kts | 245° |
| 2026-04-28 11:01 | 27.86397 | 76.69581 | 21753 ft | 411 kts | 245° |
| 2026-04-28 11:01 | 27.85131 | 76.66741 | 22265 ft | 405 kts | 245° |
| 2026-04-28 11:02 | 27.83868 | 76.63916 | 22765 ft | 399 kts | 245° |
| 2026-04-28 11:02 | 27.82589 | 76.61161 | 23249 ft | 394 kts | 239° |
| 2026-04-28 11:02 | 27.80688 | 76.58961 | 23746 ft | 393 kts | 219° |
| 2026-04-28 11:02 | 27.78468 | 76.57228 | 24296 ft | 386 kts | 218° |
| 2026-04-28 11:03 | 27.76302 | 76.55525 | 24758 ft | 380 kts | 218° |
| 2026-04-28 11:03 | 27.74158 | 76.53830 | 25224 ft | 374 kts | 218° |
| 2026-04-28 11:03 | 27.72022 | 76.52144 | 25692 ft | 368 kts | 218° |
| 2026-04-28 11:03 | 27.69965 | 76.50513 | 26152 ft | 361 kts | 220° |
| 2026-04-28 11:04 | 27.68004 | 76.48805 | 26616 ft | 353 kts | 221° |
| 2026-04-28 11:04 | 27.66015 | 76.47214 | 27076 ft | 347 kts | 217° |
| 2026-04-28 11:04 | 27.64045 | 76.45718 | 27532 ft | 340 kts | 218° |
| 2026-04-28 11:04 | 27.62094 | 76.44237 | 27975 ft | 335 kts | 218° |
| 2026-04-28 11:05 | 27.60149 | 76.42768 | 28241 ft | 337 kts | 218° |
| 2026-04-28 11:05 | 27.58201 | 76.41290 | 28516 ft | 339 kts | 218° |
| 2026-04-28 11:05 | 27.56233 | 76.39788 | 28667 ft | 345 kts | 218° |
| 2026-04-28 11:05 | 27.54206 | 76.38249 | 28663 ft | 356 kts | 218° |
| 2026-04-28 11:06 | 27.52149 | 76.36697 | 28692 ft | 365 kts | 218° |
| 2026-04-28 11:06 | 27.47797 | 76.33379 | 28750 ft | 385 kts | 217° |
| 2026-04-28 11:07 | 27.43264 | 76.29945 | 28805 ft | 405 kts | 217° |
| 2026-04-28 11:07 | 27.38446 | 76.26315 | 28865 ft | 424 kts | 217° |
| 2026-04-28 11:07 | 27.35919 | 76.24563 | 28867 ft | 437 kts | 208° |
| 2026-04-28 11:08 | 27.32959 | 76.23552 | 28891 ft | 453 kts | 191° |
| 2026-04-28 11:08 | 27.29773 | 76.23531 | 28924 ft | 469 kts | 175° |
| 2026-04-28 11:08 | 27.26590 | 76.24531 | 28947 ft | 483 kts | 159° |
| 2026-04-28 11:08 | 27.23667 | 76.26520 | 28975 ft | 496 kts | 143° |
| 2026-04-28 11:09 | 27.21271 | 76.29348 | 28986 ft | 507 kts | 127° |
| 2026-04-28 11:09 | 27.19573 | 76.32836 | 28997 ft | 515 kts | 111° |
| 2026-04-28 11:09 | 27.18708 | 76.36757 | 29020 ft | 520 kts | 96° |
| 2026-04-28 11:09 | 27.18746 | 76.40770 | 29032 ft | 523 kts | 81° |
| 2026-04-28 11:10 | 27.19687 | 76.44704 | 29049 ft | 524 kts | 66° |
| 2026-04-28 11:10 | 27.21470 | 76.48236 | 29232 ft | 519 kts | 52° |
| 2026-04-28 11:10 | 27.23563 | 76.51476 | 29811 ft | 509 kts | 52° |
| 2026-04-28 11:10 | 27.25800 | 76.54493 | 30297 ft | 499 kts | 40° |
| 2026-04-28 11:11 | 27.28588 | 76.56735 | 30771 ft | 485 kts | 24° |
| 2026-04-28 11:11 | 27.31662 | 76.58250 | 31279 ft | 476 kts | 19° |
| 2026-04-28 11:11 | 27.34662 | 76.59737 | 31773 ft | 471 kts | 20° |
| 2026-04-28 11:11 | 27.37621 | 76.61226 | 32237 ft | 466 kts | 20° |
| 2026-04-28 11:12 | 27.40575 | 76.62721 | 32708 ft | 461 kts | 20° |
| 2026-04-28 11:12 | 27.43472 | 76.64191 | 33207 ft | 455 kts | 20° |
| 2026-04-28 11:12 | 27.46322 | 76.65638 | 33726 ft | 448 kts | 20° |
| 2026-04-28 11:12 | 27.49185 | 76.67091 | 33974 ft | 448 kts | 20° |
| 2026-04-28 11:13 | 27.52066 | 76.68553 | 33906 ft | 455 kts | 20° |
| 2026-04-28 11:13 | 27.57851 | 76.71500 | 33907 ft | 455 kts | 20° |
| 2026-04-28 11:14 | 27.63632 | 76.74443 | 33927 ft | 457 kts | 20° |
| 2026-04-28 11:14 | 27.69537 | 76.77455 | 33874 ft | 469 kts | 20° |